sensor_id;sensor_type;location;lat;lon;timestamp;P1;durP1;ratioP1;P2;durP2;ratioP2
33993;SDS011;20673;48.980;8.138;2022-08-19T00:00:34;18.07;;;16.43;;
33993;SDS011;20673;48.980;8.138;2022-08-19T00:03:03;18.30;;;16.40;;
33993;SDS011;20673;48.980;8.138;2022-08-19T00:05:30;19.03;;;17.07;;
33993;SDS011;20673;48.980;8.138;2022-08-19T00:07:57;18.10;;;16.40;;
33993;SDS011;20673;48.980;8.138;2022-08-19T00:10:23;18.83;;;17.10;;
33993;SDS011;20673;48.980;8.138;2022-08-19T00:12:50;20.20;;;18.23;;
33993;SDS011;20673;48.980;8.138;2022-08-19T00:15:18;20.08;;;18.20;;
33993;SDS011;20673;48.980;8.138;2022-08-19T00:17:46;19.17;;;17.27;;
33993;SDS011;20673;48.980;8.138;2022-08-19T00:20:14;19.30;;;17.50;;
33993;SDS011;20673;48.980;8.138;2022-08-19T00:22:46;19.50;;;17.63;;
33993;SDS011;20673;48.980;8.138;2022-08-19T00:25:14;18.98;;;17.10;;
33993;SDS011;20673;48.980;8.138;2022-08-19T00:27:41;20.37;;;18.47;;
33993;SDS011;20673;48.980;8.138;2022-08-19T00:30:08;20.83;;;18.83;;
33993;SDS011;20673;48.980;8.138;2022-08-19T00:32:35;20.57;;;18.47;;
33993;SDS011;20673;48.980;8.138;2022-08-19T00:35:02;21.00;;;18.80;;
33993;SDS011;20673;48.980;8.138;2022-08-19T00:37:29;20.80;;;18.60;;
33993;SDS011;20673;48.980;8.138;2022-08-19T00:39:55;21.13;;;18.93;;
33993;SDS011;20673;48.980;8.138;2022-08-19T00:42:21;22.17;;;19.97;;
33993;SDS011;20673;48.980;8.138;2022-08-19T00:44:48;22.77;;;20.50;;
33993;SDS011;20673;48.980;8.138;2022-08-19T00:47:15;21.63;;;19.53;;
33993;SDS011;20673;48.980;8.138;2022-08-19T00:49:47;19.83;;;17.83;;
33993;SDS011;20673;48.980;8.138;2022-08-19T00:52:21;20.50;;;18.57;;
33993;SDS011;20673;48.980;8.138;2022-08-19T00:54:53;19.97;;;17.97;;
33993;SDS011;20673;48.980;8.138;2022-08-19T00:57:22;22.13;;;19.90;;
33993;SDS011;20673;48.980;8.138;2022-08-19T00:59:58;24.03;;;21.33;;
33993;SDS011;20673;48.980;8.138;2022-08-19T01:02:27;23.47;;;20.97;;
33993;SDS011;20673;48.980;8.138;2022-08-19T01:04:55;25.00;;;22.50;;
33993;SDS011;20673;48.980;8.138;2022-08-19T01:07:22;23.67;;;21.27;;
33993;SDS011;20673;48.980;8.138;2022-08-19T01:09:48;23.20;;;20.77;;
33993;SDS011;20673;48.980;8.138;2022-08-19T01:12:15;22.50;;;20.10;;
33993;SDS011;20673;48.980;8.138;2022-08-19T01:14:43;23.50;;;20.57;;
33993;SDS011;20673;48.980;8.138;2022-08-19T01:17:11;22.57;;;20.20;;
33993;SDS011;20673;48.980;8.138;2022-08-19T01:19:41;23.77;;;21.37;;
33993;SDS011;20673;48.980;8.138;2022-08-19T01:24:51;20.40;;;18.40;;
33993;SDS011;20673;48.980;8.138;2022-08-19T01:27:17;21.27;;;19.17;;
33993;SDS011;20673;48.980;8.138;2022-08-19T01:29:44;21.67;;;19.37;;
33993;SDS011;20673;48.980;8.138;2022-08-19T01:32:12;22.47;;;20.23;;
33993;SDS011;20673;48.980;8.138;2022-08-19T01:34:41;20.47;;;18.43;;
33993;SDS011;20673;48.980;8.138;2022-08-19T01:37:10;22.23;;;19.90;;
33993;SDS011;20673;48.980;8.138;2022-08-19T01:39:39;21.77;;;19.57;;
33993;SDS011;20673;48.980;8.138;2022-08-19T01:42:07;23.17;;;20.07;;
33993;SDS011;20673;48.980;8.138;2022-08-19T01:44:37;22.77;;;20.37;;
33993;SDS011;20673;48.980;8.138;2022-08-19T01:47:06;25.57;;;20.83;;
33993;SDS011;20673;48.980;8.138;2022-08-19T01:49:35;23.53;;;21.07;;
33993;SDS011;20673;48.980;8.138;2022-08-19T01:52:02;21.00;;;18.83;;
33993;SDS011;20673;48.980;8.138;2022-08-19T01:54:29;20.23;;;18.30;;
33993;SDS011;20673;48.980;8.138;2022-08-19T01:57:01;24.07;;;21.53;;
33993;SDS011;20673;48.980;8.138;2022-08-19T01:59:31;23.67;;;21.10;;
33993;SDS011;20673;48.980;8.138;2022-08-19T02:01:59;23.60;;;20.83;;
33993;SDS011;20673;48.980;8.138;2022-08-19T02:04:25;23.63;;;20.93;;
33993;SDS011;20673;48.980;8.138;2022-08-19T02:06:52;21.00;;;18.90;;
33993;SDS011;20673;48.980;8.138;2022-08-19T02:09:18;23.50;;;20.53;;
33993;SDS011;20673;48.980;8.138;2022-08-19T02:11:44;25.67;;;23.00;;
33993;SDS011;20673;48.980;8.138;2022-08-19T02:14:10;24.80;;;21.33;;
33993;SDS011;20673;48.980;8.138;2022-08-19T02:16:37;24.30;;;21.83;;
33993;SDS011;20673;48.980;8.138;2022-08-19T02:19:03;22.03;;;19.90;;
33993;SDS011;20673;48.980;8.138;2022-08-19T02:21:30;23.00;;;19.90;;
33993;SDS011;20673;48.980;8.138;2022-08-19T02:23:57;27.47;;;21.43;;
33993;SDS011;20673;48.980;8.138;2022-08-19T02:26:23;21.90;;;19.60;;
33993;SDS011;20673;48.980;8.138;2022-08-19T02:28:51;22.30;;;20.00;;
33993;SDS011;20673;48.980;8.138;2022-08-19T02:31:19;23.20;;;20.90;;
33993;SDS011;20673;48.980;8.138;2022-08-19T02:33:48;25.00;;;22.33;;
33993;SDS011;20673;48.980;8.138;2022-08-19T02:36:16;22.93;;;20.53;;
33993;SDS011;20673;48.980;8.138;2022-08-19T02:38:42;23.67;;;21.20;;
33993;SDS011;20673;48.980;8.138;2022-08-19T02:41:11;24.52;;;21.87;;
33993;SDS011;20673;48.980;8.138;2022-08-19T02:43:42;22.82;;;20.62;;
33993;SDS011;20673;48.980;8.138;2022-08-19T02:46:22;23.67;;;21.27;;
33993;SDS011;20673;48.980;8.138;2022-08-19T02:48:49;24.00;;;21.40;;
33993;SDS011;20673;48.980;8.138;2022-08-19T02:51:20;26.25;;;22.85;;
33993;SDS011;20673;48.980;8.138;2022-08-19T02:53:51;25.50;;;23.00;;
33993;SDS011;20673;48.980;8.138;2022-08-19T02:56:18;26.30;;;22.93;;
33993;SDS011;20673;48.980;8.138;2022-08-19T02:58:45;26.13;;;23.53;;
33993;SDS011;20673;48.980;8.138;2022-08-19T03:01:21;24.23;;;21.77;;
33993;SDS011;20673;48.980;8.138;2022-08-19T03:03:50;22.77;;;20.53;;
33993;SDS011;20673;48.980;8.138;2022-08-19T03:06:17;25.13;;;22.63;;
33993;SDS011;20673;48.980;8.138;2022-08-19T03:08:45;25.13;;;21.67;;
33993;SDS011;20673;48.980;8.138;2022-08-19T03:11:22;26.23;;;23.37;;
33993;SDS011;20673;48.980;8.138;2022-08-19T03:13:55;24.50;;;21.97;;
33993;SDS011;20673;48.980;8.138;2022-08-19T03:16:25;26.63;;;23.83;;
33993;SDS011;20673;48.980;8.138;2022-08-19T03:18:55;29.00;;;25.93;;
33993;SDS011;20673;48.980;8.138;2022-08-19T03:21:25;27.43;;;24.47;;
33993;SDS011;20673;48.980;8.138;2022-08-19T03:23:54;27.03;;;24.23;;
33993;SDS011;20673;48.980;8.138;2022-08-19T03:26:24;25.67;;;23.07;;
33993;SDS011;20673;48.980;8.138;2022-08-19T03:28:50;29.57;;;26.47;;
33993;SDS011;20673;48.980;8.138;2022-08-19T03:31:22;27.67;;;24.82;;
33993;SDS011;20673;48.980;8.138;2022-08-19T03:33:48;28.60;;;25.03;;
33993;SDS011;20673;48.980;8.138;2022-08-19T03:36:17;27.17;;;24.10;;
33993;SDS011;20673;48.980;8.138;2022-08-19T03:38:51;26.73;;;23.93;;
33993;SDS011;20673;48.980;8.138;2022-08-19T03:41:24;27.93;;;23.83;;
33993;SDS011;20673;48.980;8.138;2022-08-19T03:43:53;26.67;;;23.43;;
33993;SDS011;20673;48.980;8.138;2022-08-19T03:46:21;28.97;;;25.83;;
33993;SDS011;20673;48.980;8.138;2022-08-19T03:48:52;30.02;;;24.43;;
33993;SDS011;20673;48.980;8.138;2022-08-19T03:51:23;24.43;;;21.80;;
33993;SDS011;20673;48.980;8.138;2022-08-19T03:53:58;25.53;;;22.83;;
33993;SDS011;20673;48.980;8.138;2022-08-19T03:56:28;23.77;;;20.90;;
33993;SDS011;20673;48.980;8.138;2022-08-19T03:58:55;29.17;;;26.07;;
33993;SDS011;20673;48.980;8.138;2022-08-19T04:01:25;26.93;;;24.07;;
33993;SDS011;20673;48.980;8.138;2022-08-19T04:03:55;26.00;;;23.30;;
33993;SDS011;20673;48.980;8.138;2022-08-19T04:06:24;24.37;;;21.80;;
33993;SDS011;20673;48.980;8.138;2022-08-19T04:08:55;26.30;;;22.40;;
33993;SDS011;20673;48.980;8.138;2022-08-19T04:11:25;23.97;;;21.43;;
33993;SDS011;20673;48.980;8.138;2022-08-19T04:13:54;28.03;;;25.03;;
33993;SDS011;20673;48.980;8.138;2022-08-19T04:16:23;26.20;;;23.50;;
33993;SDS011;20673;48.980;8.138;2022-08-19T04:18:53;26.27;;;23.47;;
33993;SDS011;20673;48.980;8.138;2022-08-19T04:21:22;27.93;;;24.65;;
33993;SDS011;20673;48.980;8.138;2022-08-19T04:23:51;28.57;;;24.50;;
33993;SDS011;20673;48.980;8.138;2022-08-19T04:26:20;28.43;;;24.70;;
33993;SDS011;20673;48.980;8.138;2022-08-19T04:28:50;30.37;;;26.17;;
33993;SDS011;20673;48.980;8.138;2022-08-19T04:31:18;27.50;;;24.70;;
33993;SDS011;20673;48.980;8.138;2022-08-19T04:33:47;27.67;;;22.67;;
33993;SDS011;20673;48.980;8.138;2022-08-19T04:36:17;25.80;;;23.20;;
33993;SDS011;20673;48.980;8.138;2022-08-19T04:38:47;25.10;;;22.40;;
33993;SDS011;20673;48.980;8.138;2022-08-19T04:41:15;23.10;;;20.60;;
33993;SDS011;20673;48.980;8.138;2022-08-19T04:44:00;27.83;;;22.90;;
33993;SDS011;20673;48.980;8.138;2022-08-19T04:46:27;27.40;;;24.33;;
33993;SDS011;20673;48.980;8.138;2022-08-19T04:48:56;27.93;;;24.00;;
33993;SDS011;20673;48.980;8.138;2022-08-19T04:51:22;26.50;;;23.33;;
33993;SDS011;20673;48.980;8.138;2022-08-19T04:53:49;29.23;;;25.97;;
33993;SDS011;20673;48.980;8.138;2022-08-19T04:56:17;27.42;;;24.50;;
33993;SDS011;20673;48.980;8.138;2022-08-19T04:58:48;28.92;;;24.10;;
33993;SDS011;20673;48.980;8.138;2022-08-19T05:01:18;25.30;;;22.60;;
33993;SDS011;20673;48.980;8.138;2022-08-19T05:03:51;26.23;;;22.22;;
33993;SDS011;20673;48.980;8.138;2022-08-19T05:06:19;25.50;;;22.80;;
33993;SDS011;20673;48.980;8.138;2022-08-19T05:08:47;30.47;;;24.07;;
33993;SDS011;20673;48.980;8.138;2022-08-19T05:13:48;24.40;;;21.87;;
33993;SDS011;20673;48.980;8.138;2022-08-19T05:16:15;28.85;;;25.20;;
33993;SDS011;20673;48.980;8.138;2022-08-19T05:18:45;26.27;;;23.47;;
33993;SDS011;20673;48.980;8.138;2022-08-19T05:21:30;27.23;;;24.33;;
33993;SDS011;20673;48.980;8.138;2022-08-19T05:24:16;26.42;;;23.62;;
33993;SDS011;20673;48.980;8.138;2022-08-19T05:26:45;28.05;;;24.82;;
33993;SDS011;20673;48.980;8.138;2022-08-19T05:29:14;31.10;;;25.90;;
33993;SDS011;20673;48.980;8.138;2022-08-19T05:31:44;27.42;;;24.25;;
33993;SDS011;20673;48.980;8.138;2022-08-19T05:34:11;30.13;;;26.73;;
33993;SDS011;20673;48.980;8.138;2022-08-19T05:36:40;32.30;;;28.07;;
33993;SDS011;20673;48.980;8.138;2022-08-19T05:39:10;31.60;;;28.13;;
33993;SDS011;20673;48.980;8.138;2022-08-19T05:41:46;28.40;;;25.37;;
33993;SDS011;20673;48.980;8.138;2022-08-19T05:44:11;27.65;;;24.75;;
33993;SDS011;20673;48.980;8.138;2022-08-19T05:46:39;29.80;;;26.17;;
33993;SDS011;20673;48.980;8.138;2022-08-19T05:49:15;31.97;;;27.23;;
33993;SDS011;20673;48.980;8.138;2022-08-19T05:51:42;27.27;;;24.23;;
33993;SDS011;20673;48.980;8.138;2022-08-19T05:54:08;29.47;;;26.10;;
33993;SDS011;20673;48.980;8.138;2022-08-19T05:56:36;26.47;;;23.77;;
33993;SDS011;20673;48.980;8.138;2022-08-19T05:59:04;29.27;;;26.27;;
33993;SDS011;20673;48.980;8.138;2022-08-19T06:01:34;31.77;;;27.90;;
33993;SDS011;20673;48.980;8.138;2022-08-19T06:04:02;31.07;;;27.67;;
33993;SDS011;20673;48.980;8.138;2022-08-19T06:06:29;30.77;;;26.77;;
33993;SDS011;20673;48.980;8.138;2022-08-19T06:08:55;31.03;;;27.83;;
33993;SDS011;20673;48.980;8.138;2022-08-19T06:11:24;35.57;;;28.90;;
33993;SDS011;20673;48.980;8.138;2022-08-19T06:14:07;29.83;;;26.70;;
33993;SDS011;20673;48.980;8.138;2022-08-19T06:16:38;28.87;;;25.88;;
33993;SDS011;20673;48.980;8.138;2022-08-19T06:19:07;30.12;;;26.70;;
33993;SDS011;20673;48.980;8.138;2022-08-19T06:21:42;32.20;;;28.73;;
33993;SDS011;20673;48.980;8.138;2022-08-19T06:24:12;31.60;;;28.25;;
33993;SDS011;20673;48.980;8.138;2022-08-19T06:26:42;31.02;;;27.85;;
33993;SDS011;20673;48.980;8.138;2022-08-19T06:29:12;31.80;;;28.38;;
33993;SDS011;20673;48.980;8.138;2022-08-19T06:31:42;32.10;;;28.70;;
33993;SDS011;20673;48.980;8.138;2022-08-19T06:34:12;30.70;;;27.50;;
33993;SDS011;20673;48.980;8.138;2022-08-19T06:36:41;34.60;;;29.50;;
33993;SDS011;20673;48.980;8.138;2022-08-19T06:39:14;32.30;;;28.90;;
33993;SDS011;20673;48.980;8.138;2022-08-19T06:41:47;31.05;;;27.60;;
33993;SDS011;20673;48.980;8.138;2022-08-19T06:44:17;32.35;;;29.20;;
33993;SDS011;20673;48.980;8.138;2022-08-19T06:46:45;32.67;;;29.27;;
33993;SDS011;20673;48.980;8.138;2022-08-19T06:49:14;32.93;;;29.52;;
33993;SDS011;20673;48.980;8.138;2022-08-19T06:51:42;32.47;;;29.13;;
33993;SDS011;20673;48.980;8.138;2022-08-19T06:54:13;31.47;;;28.30;;
33993;SDS011;20673;48.980;8.138;2022-08-19T06:56:41;30.63;;;27.37;;
33993;SDS011;20673;48.980;8.138;2022-08-19T06:59:11;30.77;;;27.48;;
33993;SDS011;20673;48.980;8.138;2022-08-19T07:01:48;28.60;;;25.70;;
33993;SDS011;20673;48.980;8.138;2022-08-19T07:04:18;27.07;;;24.27;;
33993;SDS011;20673;48.980;8.138;2022-08-19T07:06:49;26.47;;;23.80;;
33993;SDS011;20673;48.980;8.138;2022-08-19T07:09:17;27.57;;;24.77;;
33993;SDS011;20673;48.980;8.138;2022-08-19T07:11:49;25.20;;;22.50;;
33993;SDS011;20673;48.980;8.138;2022-08-19T07:14:16;25.32;;;22.80;;
33993;SDS011;20673;48.980;8.138;2022-08-19T07:16:46;23.20;;;21.03;;
33993;SDS011;20673;48.980;8.138;2022-08-19T07:19:14;21.93;;;19.83;;
33993;SDS011;20673;48.980;8.138;2022-08-19T07:21:42;21.45;;;19.35;;
33993;SDS011;20673;48.980;8.138;2022-08-19T07:24:08;22.20;;;20.15;;
33993;SDS011;20673;48.980;8.138;2022-08-19T07:26:39;20.43;;;18.50;;
33993;SDS011;20673;48.980;8.138;2022-08-19T07:29:08;20.20;;;18.30;;
33993;SDS011;20673;48.980;8.138;2022-08-19T07:31:36;19.17;;;17.17;;
33993;SDS011;20673;48.980;8.138;2022-08-19T07:34:04;17.45;;;15.75;;
33993;SDS011;20673;48.980;8.138;2022-08-19T07:36:35;20.05;;;17.10;;
33993;SDS011;20673;48.980;8.138;2022-08-19T07:39:06;17.52;;;15.48;;
33993;SDS011;20673;48.980;8.138;2022-08-19T07:41:35;17.73;;;15.60;;
33993;SDS011;20673;48.980;8.138;2022-08-19T07:44:02;15.70;;;14.25;;
33993;SDS011;20673;48.980;8.138;2022-08-19T07:46:33;14.58;;;13.22;;
33993;SDS011;20673;48.980;8.138;2022-08-19T07:49:03;15.30;;;13.68;;
33993;SDS011;20673;48.980;8.138;2022-08-19T07:51:31;14.80;;;13.32;;
33993;SDS011;20673;48.980;8.138;2022-08-19T07:53:58;15.25;;;13.20;;
33993;SDS011;20673;48.980;8.138;2022-08-19T07:56:25;13.83;;;12.60;;
33993;SDS011;20673;48.980;8.138;2022-08-19T07:58:52;15.05;;;13.55;;
33993;SDS011;20673;48.980;8.138;2022-08-19T08:01:20;12.18;;;11.15;;
33993;SDS011;20673;48.980;8.138;2022-08-19T08:03:53;13.50;;;12.30;;
33993;SDS011;20673;48.980;8.138;2022-08-19T08:06:40;13.78;;;12.43;;
33993;SDS011;20673;48.980;8.138;2022-08-19T08:09:33;14.07;;;12.58;;
33993;SDS011;20673;48.980;8.138;2022-08-19T08:12:04;14.60;;;12.30;;
33993;SDS011;20673;48.980;8.138;2022-08-19T08:17:13;15.40;;;11.90;;
33993;SDS011;20673;48.980;8.138;2022-08-19T08:19:43;12.68;;;11.12;;
33993;SDS011;20673;48.980;8.138;2022-08-19T08:22:11;12.23;;;11.12;;
33993;SDS011;20673;48.980;8.138;2022-08-19T08:25:03;13.48;;;11.90;;
33993;SDS011;20673;48.980;8.138;2022-08-19T08:27:43;12.28;;;10.85;;
33993;SDS011;20673;48.980;8.138;2022-08-19T08:30:12;12.25;;;11.03;;
33993;SDS011;20673;48.980;8.138;2022-08-19T08:32:45;13.48;;;11.85;;
33993;SDS011;20673;48.980;8.138;2022-08-19T08:35:14;12.00;;;10.90;;
33993;SDS011;20673;48.980;8.138;2022-08-19T08:37:43;12.43;;;11.15;;
33993;SDS011;20673;48.980;8.138;2022-08-19T08:43:07;13.35;;;11.95;;
33993;SDS011;20673;48.980;8.138;2022-08-19T08:45:36;12.45;;;10.65;;
33993;SDS011;20673;48.980;8.138;2022-08-19T08:48:18;12.70;;;11.40;;
33993;SDS011;20673;48.980;8.138;2022-08-19T08:51:00;11.75;;;10.60;;
33993;SDS011;20673;48.980;8.138;2022-08-19T08:53:31;11.30;;;10.20;;
33993;SDS011;20673;48.980;8.138;2022-08-19T08:56:02;12.93;;;10.60;;
33993;SDS011;20673;48.980;8.138;2022-08-19T08:58:35;12.30;;;11.20;;
33993;SDS011;20673;48.980;8.138;2022-08-19T09:01:09;10.18;;;9.25;;
33993;SDS011;20673;48.980;8.138;2022-08-19T09:03:37;11.57;;;10.38;;
33993;SDS011;20673;48.980;8.138;2022-08-19T09:06:11;11.25;;;10.05;;
33993;SDS011;20673;48.980;8.138;2022-08-19T09:12:20;9.85;;;8.95;;
33993;SDS011;20673;48.980;8.138;2022-08-19T09:14:37;10.80;;;9.63;;
33993;SDS011;20673;48.980;8.138;2022-08-19T09:17:11;12.10;;;10.15;;
33993;SDS011;20673;48.980;8.138;2022-08-19T09:19:52;11.38;;;10.20;;
33993;SDS011;20673;48.980;8.138;2022-08-19T09:22:26;10.58;;;9.58;;
33993;SDS011;20673;48.980;8.138;2022-08-19T09:24:53;11.85;;;9.58;;
33993;SDS011;20673;48.980;8.138;2022-08-19T09:27:20;10.78;;;9.68;;
33993;SDS011;20673;48.980;8.138;2022-08-19T09:29:52;10.50;;;8.95;;
33993;SDS011;20673;48.980;8.138;2022-08-19T09:32:19;9.58;;;8.58;;
33993;SDS011;20673;48.980;8.138;2022-08-19T09:34:47;11.55;;;9.03;;
33993;SDS011;20673;48.980;8.138;2022-08-19T09:37:14;9.25;;;8.38;;
33993;SDS011;20673;48.980;8.138;2022-08-19T09:39:40;10.05;;;8.33;;
33993;SDS011;20673;48.980;8.138;2022-08-19T09:42:08;9.80;;;8.05;;
33993;SDS011;20673;48.980;8.138;2022-08-19T09:44:39;9.20;;;8.30;;
33993;SDS011;20673;48.980;8.138;2022-08-19T09:47:07;10.30;;;9.28;;
33993;SDS011;20673;48.980;8.138;2022-08-19T09:49:35;10.05;;;8.50;;
33993;SDS011;20673;48.980;8.138;2022-08-19T09:52:02;8.98;;;8.08;;
33993;SDS011;20673;48.980;8.138;2022-08-19T09:54:29;8.50;;;7.47;;
33993;SDS011;20673;48.980;8.138;2022-08-19T09:56:55;9.48;;;8.40;;
33993;SDS011;20673;48.980;8.138;2022-08-19T09:59:26;8.30;;;7.67;;
33993;SDS011;20673;48.980;8.138;2022-08-19T10:01:53;9.75;;;8.58;;
33993;SDS011;20673;48.980;8.138;2022-08-19T10:04:20;9.35;;;8.25;;
33993;SDS011;20673;48.980;8.138;2022-08-19T10:06:51;8.60;;;7.78;;
33993;SDS011;20673;48.980;8.138;2022-08-19T10:09:19;9.73;;;8.93;;
33993;SDS011;20673;48.980;8.138;2022-08-19T10:11:45;9.23;;;8.43;;
33993;SDS011;20673;48.980;8.138;2022-08-19T10:14:15;9.85;;;8.83;;
33993;SDS011;20673;48.980;8.138;2022-08-19T10:16:42;8.10;;;7.30;;
33993;SDS011;20673;48.980;8.138;2022-08-19T10:19:09;10.18;;;8.23;;
33993;SDS011;20673;48.980;8.138;2022-08-19T10:21:35;8.28;;;7.47;;
33993;SDS011;20673;48.980;8.138;2022-08-19T10:24:03;8.33;;;7.62;;
33993;SDS011;20673;48.980;8.138;2022-08-19T10:26:32;8.15;;;7.37;;
33993;SDS011;20673;48.980;8.138;2022-08-19T10:29:02;8.85;;;7.95;;
33993;SDS011;20673;48.980;8.138;2022-08-19T10:31:31;8.10;;;7.40;;
33993;SDS011;20673;48.980;8.138;2022-08-19T10:33:59;9.33;;;8.53;;
33993;SDS011;20673;48.980;8.138;2022-08-19T10:36:28;8.98;;;8.03;;
33993;SDS011;20673;48.980;8.138;2022-08-19T10:38:58;8.93;;;8.13;;
33993;SDS011;20673;48.980;8.138;2022-08-19T10:41:30;10.45;;;8.83;;
33993;SDS011;20673;48.980;8.138;2022-08-19T10:44:00;9.00;;;8.15;;
33993;SDS011;20673;48.980;8.138;2022-08-19T10:46:30;8.85;;;8.13;;
33993;SDS011;20673;48.980;8.138;2022-08-19T10:49:00;9.48;;;8.50;;
33993;SDS011;20673;48.980;8.138;2022-08-19T10:51:29;12.23;;;9.55;;
33993;SDS011;20673;48.980;8.138;2022-08-19T10:54:14;10.53;;;9.45;;
33993;SDS011;20673;48.980;8.138;2022-08-19T10:56:41;9.18;;;8.43;;
33993;SDS011;20673;48.980;8.138;2022-08-19T10:59:28;9.48;;;8.60;;
33993;SDS011;20673;48.980;8.138;2022-08-19T11:01:54;8.95;;;8.25;;
33993;SDS011;20673;48.980;8.138;2022-08-19T11:04:27;9.98;;;9.18;;
33993;SDS011;20673;48.980;8.138;2022-08-19T11:06:54;10.38;;;9.30;;
33993;SDS011;20673;48.980;8.138;2022-08-19T11:09:22;10.98;;;9.88;;
33993;SDS011;20673;48.980;8.138;2022-08-19T11:11:51;10.70;;;9.70;;
33993;SDS011;20673;48.980;8.138;2022-08-19T11:14:19;10.15;;;9.25;;
33993;SDS011;20673;48.980;8.138;2022-08-19T11:16:47;11.03;;;9.95;;
33993;SDS011;20673;48.980;8.138;2022-08-19T11:19:15;10.25;;;9.43;;
33993;SDS011;20673;48.980;8.138;2022-08-19T11:21:45;11.12;;;9.93;;
33993;SDS011;20673;48.980;8.138;2022-08-19T11:24:14;10.63;;;9.63;;
33993;SDS011;20673;48.980;8.138;2022-08-19T11:26:47;10.25;;;9.30;;
33993;SDS011;20673;48.980;8.138;2022-08-19T11:29:16;10.35;;;9.45;;
33993;SDS011;20673;48.980;8.138;2022-08-19T11:31:46;10.30;;;9.40;;
33993;SDS011;20673;48.980;8.138;2022-08-19T11:34:16;9.85;;;9.03;;
33993;SDS011;20673;48.980;8.138;2022-08-19T11:36:46;9.35;;;8.48;;
33993;SDS011;20673;48.980;8.138;2022-08-19T11:39:14;9.48;;;8.58;;
33993;SDS011;20673;48.980;8.138;2022-08-19T11:41:43;8.50;;;7.70;;
33993;SDS011;20673;48.980;8.138;2022-08-19T11:44:10;8.48;;;7.85;;
33993;SDS011;20673;48.980;8.138;2022-08-19T11:46:38;7.53;;;6.92;;
33993;SDS011;20673;48.980;8.138;2022-08-19T11:49:07;8.25;;;7.65;;
33993;SDS011;20673;48.980;8.138;2022-08-19T11:51:35;8.08;;;7.45;;
33993;SDS011;20673;48.980;8.138;2022-08-19T11:54:01;9.13;;;7.62;;
33993;SDS011;20673;48.980;8.138;2022-08-19T11:56:31;7.62;;;7.03;;
33993;SDS011;20673;48.980;8.138;2022-08-19T11:58:58;7.35;;;6.78;;
33993;SDS011;20673;48.980;8.138;2022-08-19T12:01:27;7.25;;;6.75;;
33993;SDS011;20673;48.980;8.138;2022-08-19T12:03:54;8.00;;;7.30;;
33993;SDS011;20673;48.980;8.138;2022-08-19T12:06:23;7.72;;;7.10;;
33993;SDS011;20673;48.980;8.138;2022-08-19T12:08:57;6.67;;;6.15;;
33993;SDS011;20673;48.980;8.138;2022-08-19T12:11:27;7.10;;;6.40;;
33993;SDS011;20673;48.980;8.138;2022-08-19T12:13:54;6.35;;;5.85;;
33993;SDS011;20673;48.980;8.138;2022-08-19T12:16:22;5.90;;;5.40;;
33993;SDS011;20673;48.980;8.138;2022-08-19T12:21:19;5.50;;;5.10;;
33993;SDS011;20673;48.980;8.138;2022-08-19T12:23:51;4.85;;;4.45;;
33993;SDS011;20673;48.980;8.138;2022-08-19T12:26:18;5.28;;;4.87;;
33993;SDS011;20673;48.980;8.138;2022-08-19T12:28:44;4.47;;;4.17;;
33993;SDS011;20673;48.980;8.138;2022-08-19T12:31:11;4.92;;;4.42;;
33993;SDS011;20673;48.980;8.138;2022-08-19T12:33:37;5.37;;;4.87;;
33993;SDS011;20673;48.980;8.138;2022-08-19T12:36:07;4.70;;;4.30;;
33993;SDS011;20673;48.980;8.138;2022-08-19T12:38:36;3.83;;;3.52;;
33993;SDS011;20673;48.980;8.138;2022-08-19T12:41:04;4.92;;;4.53;;
33993;SDS011;20673;48.980;8.138;2022-08-19T12:43:34;4.72;;;4.35;;
33993;SDS011;20673;48.980;8.138;2022-08-19T12:46:01;4.42;;;3.80;;
33993;SDS011;20673;48.980;8.138;2022-08-19T12:48:29;4.40;;;4.10;;
33993;SDS011;20673;48.980;8.138;2022-08-19T12:50:58;4.28;;;3.92;;
33993;SDS011;20673;48.980;8.138;2022-08-19T12:53:25;4.42;;;4.00;;
33993;SDS011;20673;48.980;8.138;2022-08-19T12:55:59;4.50;;;4.10;;
33993;SDS011;20673;48.980;8.138;2022-08-19T12:58:26;4.17;;;3.87;;
33993;SDS011;20673;48.980;8.138;2022-08-19T13:00:54;5.53;;;4.58;;
33993;SDS011;20673;48.980;8.138;2022-08-19T13:03:20;4.50;;;3.83;;
33993;SDS011;20673;48.980;8.138;2022-08-19T13:05:51;4.28;;;3.98;;
33993;SDS011;20673;48.980;8.138;2022-08-19T13:08:18;4.83;;;4.33;;
33993;SDS011;20673;48.980;8.138;2022-08-19T13:10:44;4.67;;;4.20;;
33993;SDS011;20673;48.980;8.138;2022-08-19T13:13:11;5.33;;;4.40;;
33993;SDS011;20673;48.980;8.138;2022-08-19T13:15:38;4.55;;;3.98;;
33993;SDS011;20673;48.980;8.138;2022-08-19T13:18:07;5.35;;;4.85;;
33993;SDS011;20673;48.980;8.138;2022-08-19T13:20:36;4.47;;;4.17;;
33993;SDS011;20673;48.980;8.138;2022-08-19T13:23:06;4.55;;;4.08;;
33993;SDS011;20673;48.980;8.138;2022-08-19T13:25:33;4.70;;;4.35;;
33993;SDS011;20673;48.980;8.138;2022-08-19T13:28:01;5.17;;;4.75;;
33993;SDS011;20673;48.980;8.138;2022-08-19T13:30:28;6.12;;;4.97;;
33993;SDS011;20673;48.980;8.138;2022-08-19T13:33:12;5.70;;;5.30;;
33993;SDS011;20673;48.980;8.138;2022-08-19T13:35:56;5.20;;;4.72;;
33993;SDS011;20673;48.980;8.138;2022-08-19T13:38:25;4.83;;;4.42;;
33993;SDS011;20673;48.980;8.138;2022-08-19T13:40:54;4.70;;;4.30;;
33993;SDS011;20673;48.980;8.138;2022-08-19T13:43:21;5.35;;;4.95;;
33993;SDS011;20673;48.980;8.138;2022-08-19T13:45:51;4.72;;;4.40;;
33993;SDS011;20673;48.980;8.138;2022-08-19T13:48:21;4.42;;;4.03;;
33993;SDS011;20673;48.980;8.138;2022-08-19T13:50:48;4.70;;;4.30;;
33993;SDS011;20673;48.980;8.138;2022-08-19T13:53:15;4.70;;;4.40;;
33993;SDS011;20673;48.980;8.138;2022-08-19T13:55:42;5.25;;;4.85;;
33993;SDS011;20673;48.980;8.138;2022-08-19T13:58:09;5.28;;;4.47;;
33993;SDS011;20673;48.980;8.138;2022-08-19T14:00:38;7.22;;;4.95;;
33993;SDS011;20673;48.980;8.138;2022-08-19T14:05:35;5.03;;;4.62;;
33993;SDS011;20673;48.980;8.138;2022-08-19T14:08:02;7.05;;;5.00;;
33993;SDS011;20673;48.980;8.138;2022-08-19T14:10:29;5.75;;;5.25;;
33993;SDS011;20673;48.980;8.138;2022-08-19T14:12:57;6.92;;;6.20;;
33993;SDS011;20673;48.980;8.138;2022-08-19T14:15:26;6.78;;;5.40;;
33993;SDS011;20673;48.980;8.138;2022-08-19T14:17:54;5.35;;;4.85;;
33993;SDS011;20673;48.980;8.138;2022-08-19T14:20:21;5.80;;;5.40;;
33993;SDS011;20673;48.980;8.138;2022-08-19T14:22:48;5.45;;;4.95;;
33993;SDS011;20673;48.980;8.138;2022-08-19T14:25:20;7.80;;;5.58;;
33993;SDS011;20673;48.980;8.138;2022-08-19T14:27:47;4.83;;;4.47;;
33993;SDS011;20673;48.980;8.138;2022-08-19T14:30:15;4.92;;;4.45;;
33993;SDS011;20673;48.980;8.138;2022-08-19T14:32:46;5.83;;;4.58;;
33993;SDS011;20673;48.980;8.138;2022-08-19T14:35:13;5.80;;;4.37;;
33993;SDS011;20673;48.980;8.138;2022-08-19T14:37:41;5.05;;;4.55;;
33993;SDS011;20673;48.980;8.138;2022-08-19T14:40:09;5.08;;;4.67;;
33993;SDS011;20673;48.980;8.138;2022-08-19T14:42:36;5.65;;;4.75;;
33993;SDS011;20673;48.980;8.138;2022-08-19T14:45:03;5.15;;;4.65;;
33993;SDS011;20673;48.980;8.138;2022-08-19T14:47:31;4.78;;;4.37;;
33993;SDS011;20673;48.980;8.138;2022-08-19T14:49:57;7.00;;;5.03;;
33993;SDS011;20673;48.980;8.138;2022-08-19T14:52:24;5.25;;;4.83;;
33993;SDS011;20673;48.980;8.138;2022-08-19T14:54:50;6.25;;;4.78;;
33993;SDS011;20673;48.980;8.138;2022-08-19T14:57:16;7.03;;;4.53;;
33993;SDS011;20673;48.980;8.138;2022-08-19T14:59:43;6.35;;;4.17;;
33993;SDS011;20673;48.980;8.138;2022-08-19T15:02:09;4.50;;;4.10;;